NJE4E EKVG-ENSB
Flight info
| Callsign | NJE4E |
|---|---|
| Flight time | N/A |
| Altitude | 37000 |
| Route | MY DCT 65N006W 71N000W/N0482F370 75N006E DCT INPAR |
| Aircraft | CL60/M-SBDE1E2E3FGHIJ1J4J5J7M3RWXYZ/LB1V1D1 |
Departure
| Time | 2026-05-05 12:13 |
|---|---|
| Airport | Vágar Airport (EKVG) |
Arrival
| Time | N/A |
|---|---|
| Airport | Svalbard Airport, Longyear (ENSB) |
| Time | Latitude | Longitude | Altitude | Speed | Heading |
|---|---|---|---|---|---|
| 2026-05-05 11:48 | 62.06710 | -7.28038 | 295 ft | 0 kts | 71° |
| 2026-05-05 12:09 | 62.06709 | -7.28031 | 295 ft | 1 kts | 103° |
| 2026-05-05 12:09 | 62.06692 | -7.28036 | 295 ft | 5 kts | 209° |
| 2026-05-05 12:09 | 62.06636 | -7.28090 | 295 ft | 11 kts | 189° |
| 2026-05-05 12:10 | 62.06547 | -7.28104 | 295 ft | 14 kts | 201° |
| 2026-05-05 12:10 | 62.06457 | -7.28105 | 298 ft | 14 kts | 123° |
| 2026-05-05 12:10 | 62.06406 | -7.27907 | 300 ft | 16 kts | 120° |
| 2026-05-05 12:10 | 62.06348 | -7.27672 | 299 ft | 19 kts | 116° |
| 2026-05-05 12:11 | 62.06278 | -7.27381 | 293 ft | 25 kts | 116° |
| 2026-05-05 12:11 | 62.06186 | -7.27011 | 282 ft | 31 kts | 118° |
| 2026-05-05 12:11 | 62.06073 | -7.26565 | 268 ft | 35 kts | 118° |
| 2026-05-05 12:11 | 62.06003 | -7.26283 | 258 ft | 20 kts | 118° |
| 2026-05-05 12:12 | 62.05951 | -7.26068 | 254 ft | 13 kts | 118° |
| 2026-05-05 12:12 | 62.05919 | -7.26002 | 253 ft | 6 kts | 118° |
| 2026-05-05 12:12 | 62.05930 | -7.25981 | 253 ft | 0 kts | 297° |
| 2026-05-05 12:12 | 62.05959 | -7.26100 | 254 ft | 43 kts | 298° |
| 2026-05-05 12:13 | 62.06258 | -7.27314 | 292 ft | 136 kts | 298° |
| 2026-05-05 12:13 | 62.06775 | -7.29419 | 708 ft | 181 kts | 299° |
| 2026-05-05 12:13 | 62.07363 | -7.31942 | 1582 ft | 206 kts | 294° |
| 2026-05-05 12:13 | 62.07901 | -7.35048 | 2181 ft | 238 kts | 290° |
| 2026-05-05 12:14 | 62.08403 | -7.38363 | 3733 ft | 240 kts | 289° |
| 2026-05-05 12:14 | 62.08891 | -7.41591 | 5323 ft | 239 kts | 290° |
| 2026-05-05 12:14 | 62.09369 | -7.44929 | 6784 ft | 242 kts | 285° |
| 2026-05-05 12:14 | 62.09727 | -7.48434 | 8045 ft | 252 kts | 284° |
| 2026-05-05 12:15 | 62.10217 | -7.52118 | 8843 ft | 272 kts | 297° |
| 2026-05-05 12:15 | 62.11376 | -7.55301 | 9605 ft | 276 kts | 322° |
| 2026-05-05 12:15 | 62.13094 | -7.56944 | 10369 ft | 278 kts | 350° |
| 2026-05-05 12:15 | 62.15089 | -7.56661 | 11134 ft | 301 kts | 10° |
| 2026-05-05 12:16 | 62.17176 | -7.55606 | 11878 ft | 323 kts | 11° |
| 2026-05-05 12:16 | 62.19418 | -7.54474 | 12624 ft | 340 kts | 11° |
| 2026-05-05 12:16 | 62.21761 | -7.53292 | 13384 ft | 350 kts | 11° |
| 2026-05-05 12:16 | 62.24112 | -7.52103 | 14133 ft | 355 kts | 11° |
| 2026-05-05 12:17 | 62.26556 | -7.50867 | 14894 ft | 360 kts | 10° |
| 2026-05-05 12:17 | 62.28997 | -7.49634 | 15628 ft | 365 kts | 10° |
| 2026-05-05 12:17 | 62.31483 | -7.48376 | 16377 ft | 369 kts | 10° |
| 2026-05-05 12:17 | 62.33974 | -7.47116 | 17128 ft | 374 kts | 9° |
| 2026-05-05 12:18 | 62.36500 | -7.45837 | 17881 ft | 378 kts | 9° |
| 2026-05-05 12:18 | 62.39061 | -7.44539 | 18638 ft | 382 kts | 9° |
| 2026-05-05 12:18 | 62.41649 | -7.43225 | 19394 ft | 386 kts | 9° |
| 2026-05-05 12:18 | 62.44255 | -7.41901 | 20148 ft | 389 kts | 9° |
| 2026-05-05 12:19 | 62.46892 | -7.40560 | 20905 ft | 393 kts | 9° |
| 2026-05-05 12:19 | 62.49539 | -7.39212 | 21644 ft | 397 kts | 9° |
| 2026-05-05 12:19 | 62.52217 | -7.37845 | 22386 ft | 399 kts | 8° |
| 2026-05-05 12:19 | 62.54936 | -7.36455 | 23143 ft | 400 kts | 8° |
| 2026-05-05 12:20 | 62.57628 | -7.35076 | 23892 ft | 401 kts | 7° |
| 2026-05-05 12:20 | 62.60321 | -7.33694 | 24641 ft | 400 kts | 7° |
| 2026-05-05 12:20 | 62.62995 | -7.32317 | 25388 ft | 398 kts | 7° |
| 2026-05-05 12:20 | 62.65681 | -7.30933 | 26151 ft | 396 kts | 6° |
| 2026-05-05 12:21 | 62.68335 | -7.29566 | 26795 ft | 397 kts | 6° |
| 2026-05-05 12:21 | 62.71059 | -7.28164 | 27313 ft | 401 kts | 6° |
| 2026-05-05 12:21 | 62.73753 | -7.26775 | 27812 ft | 404 kts | 6° |
| 2026-05-05 12:21 | 62.76491 | -7.25359 | 28312 ft | 407 kts | 6° |
| 2026-05-05 12:22 | 62.79238 | -7.23934 | 28814 ft | 409 kts | 6° |
| 2026-05-05 12:22 | 62.82028 | -7.22484 | 29304 ft | 410 kts | 6° |
| 2026-05-05 12:22 | 62.84797 | -7.21044 | 29712 ft | 413 kts | 6° |
| 2026-05-05 12:22 | 62.87569 | -7.19601 | 30033 ft | 418 kts | 6° |
| 2026-05-05 12:23 | 62.90444 | -7.18104 | 30303 ft | 425 kts | 6° |
| 2026-05-05 12:23 | 62.93339 | -7.16592 | 30545 ft | 432 kts | 6° |
| 2026-05-05 12:23 | 62.96293 | -7.15044 | 30785 ft | 438 kts | 6° |
| 2026-05-05 12:23 | 62.99262 | -7.13485 | 31022 ft | 443 kts | 6° |
| 2026-05-05 12:24 | 63.02244 | -7.11912 | 31296 ft | 446 kts | 6° |
| 2026-05-05 12:24 | 63.05292 | -7.10300 | 31601 ft | 448 kts | 6° |
| 2026-05-05 12:24 | 63.08277 | -7.08717 | 31899 ft | 448 kts | 6° |
| 2026-05-05 12:24 | 63.11321 | -7.07099 | 32208 ft | 448 kts | 6° |
| 2026-05-05 12:25 | 63.14325 | -7.05499 | 32510 ft | 447 kts | 7° |
| 2026-05-05 12:25 | 63.17352 | -7.03885 | 32802 ft | 447 kts | 7° |
| 2026-05-05 12:25 | 63.20361 | -7.02277 | 33090 ft | 447 kts | 7° |
| 2026-05-05 12:25 | 63.23366 | -7.00668 | 33381 ft | 446 kts | 7° |
| 2026-05-05 12:26 | 63.26377 | -6.99053 | 33662 ft | 446 kts | 8° |
| 2026-05-05 12:26 | 63.29372 | -6.97444 | 33931 ft | 446 kts | 8° |
| 2026-05-05 12:26 | 63.32377 | -6.95825 | 34191 ft | 446 kts | 8° |
| 2026-05-05 12:26 | 63.35378 | -6.94206 | 34431 ft | 446 kts | 8° |
| 2026-05-05 12:27 | 63.38390 | -6.92578 | 34665 ft | 446 kts | 8° |
| 2026-05-05 12:27 | 63.41384 | -6.90956 | 34891 ft | 446 kts | 8° |
| 2026-05-05 12:27 | 63.44407 | -6.89315 | 35116 ft | 446 kts | 9° |
| 2026-05-05 12:27 | 63.47418 | -6.87677 | 35337 ft | 446 kts | 9° |
| 2026-05-05 12:28 | 63.50412 | -6.86045 | 35550 ft | 446 kts | 9° |
| 2026-05-05 12:28 | 63.53415 | -6.84404 | 35752 ft | 445 kts | 9° |
| 2026-05-05 12:28 | 63.56441 | -6.82747 | 35936 ft | 446 kts | 9° |
| 2026-05-05 12:28 | 63.59436 | -6.81105 | 36104 ft | 446 kts | 9° |
| 2026-05-05 12:29 | 63.62437 | -6.79455 | 36265 ft | 447 kts | 9° |
| 2026-05-05 12:29 | 63.65427 | -6.77808 | 36421 ft | 447 kts | 9° |
| 2026-05-05 12:29 | 63.68438 | -6.76145 | 36575 ft | 448 kts | 9° |
| 2026-05-05 12:29 | 63.71492 | -6.74455 | 36725 ft | 448 kts | 9° |
| 2026-05-05 12:30 | 63.74473 | -6.72802 | 36866 ft | 449 kts | 9° |
| 2026-05-05 12:30 | 63.77512 | -6.71113 | 37006 ft | 449 kts | 9° |
| 2026-05-05 12:30 | 63.80525 | -6.69434 | 37126 ft | 450 kts | 9° |
| 2026-05-05 12:30 | 63.83562 | -6.67741 | 37136 ft | 454 kts | 9° |
| 2026-05-05 12:31 | 63.89757 | -6.64273 | 37122 ft | 462 kts | 10° |
| 2026-05-05 12:31 | 63.96017 | -6.60751 | 37120 ft | 468 kts | 10° |
| 2026-05-05 12:32 | 64.02325 | -6.57184 | 37117 ft | 473 kts | 10° |
| 2026-05-05 12:32 | 64.08714 | -6.53553 | 37116 ft | 475 kts | 10° |
| 2026-05-05 12:33 | 64.15148 | -6.49878 | 37120 ft | 475 kts | 10° |
| 2026-05-05 12:33 | 64.21508 | -6.46230 | 37106 ft | 475 kts | 10° |
| 2026-05-05 12:34 | 64.27903 | -6.42542 | 37214 ft | 469 kts | 10° |
| 2026-05-05 12:34 | 64.31055 | -6.40718 | 37343 ft | 467 kts | 10° |
| 2026-05-05 12:34 | 64.34192 | -6.38900 | 37470 ft | 466 kts | 10° |
| 2026-05-05 12:35 | 64.37332 | -6.37075 | 37598 ft | 465 kts | 10° |
| 2026-05-05 12:35 | 64.40430 | -6.35271 | 37725 ft | 464 kts | 10° |
| 2026-05-05 12:35 | 64.43574 | -6.33436 | 37854 ft | 463 kts | 11° |
| 2026-05-05 12:35 | 64.46683 | -6.31617 | 37996 ft | 462 kts | 11° |
| 2026-05-05 12:36 | 64.49792 | -6.29794 | 38126 ft | 461 kts | 11° |
| 2026-05-05 12:36 | 64.52895 | -6.27970 | 38258 ft | 461 kts | 11° |
| 2026-05-05 12:36 | 64.55991 | -6.26147 | 38387 ft | 460 kts | 11° |
| 2026-05-05 12:36 | 64.59097 | -6.24312 | 38515 ft | 459 kts | 11° |
| 2026-05-05 12:37 | 64.62170 | -6.22494 | 38642 ft | 459 kts | 11° |
| 2026-05-05 12:37 | 64.65241 | -6.20672 | 38768 ft | 458 kts | 11° |
| 2026-05-05 12:37 | 64.68348 | -6.18825 | 38897 ft | 457 kts | 11° |
| 2026-05-05 12:37 | 64.71424 | -6.16991 | 39025 ft | 456 kts | 11° |
| 2026-05-05 12:38 | 64.77589 | -6.13305 | 39093 ft | 459 kts | 11° |
| 2026-05-05 12:38 | 64.83777 | -6.09588 | 39089 ft | 463 kts | 12° |
| 2026-05-05 12:39 | 64.90020 | -6.05818 | 39085 ft | 466 kts | 12° |
| 2026-05-05 12:39 | 64.96317 | -6.01997 | 39084 ft | 469 kts | 12° |
| 2026-05-05 12:40 | 65.02612 | -5.97947 | 39083 ft | 472 kts | 14° |
| 2026-05-05 12:40 | 65.08865 | -5.93143 | 39080 ft | 475 kts | 15° |
| 2026-05-05 12:41 | 65.15196 | -5.88249 | 39077 ft | 478 kts | 15° |
| 2026-05-05 12:41 | 65.21567 | -5.83310 | 39074 ft | 479 kts | 15° |
| 2026-05-05 12:42 | 65.27862 | -5.78412 | 39071 ft | 479 kts | 15° |
| 2026-05-05 12:42 | 65.34153 | -5.73499 | 39068 ft | 478 kts | 15° |
| 2026-05-05 12:43 | 65.40440 | -5.68569 | 39066 ft | 478 kts | 15° |
| 2026-05-05 12:43 | 65.46756 | -5.63596 | 39063 ft | 478 kts | 15° |
| 2026-05-05 12:44 | 65.53045 | -5.58621 | 39060 ft | 478 kts | 15° |
| 2026-05-05 12:44 | 65.59316 | -5.53637 | 39055 ft | 478 kts | 15° |
| 2026-05-05 12:45 | 65.65610 | -5.48610 | 39057 ft | 478 kts | 15° |
| 2026-05-05 12:45 | 65.71932 | -5.43536 | 39093 ft | 478 kts | 15° |
| 2026-05-05 12:46 | 65.78181 | -5.38497 | 39118 ft | 478 kts | 15° |
| 2026-05-05 12:46 | 65.84467 | -5.33401 | 39111 ft | 478 kts | 17° |
| 2026-05-05 12:47 | 65.90768 | -5.28268 | 39109 ft | 478 kts | 17° |
| 2026-05-05 12:47 | 65.97070 | -5.23107 | 39108 ft | 478 kts | 17° |
| 2026-05-05 12:48 | 66.03371 | -5.17919 | 39105 ft | 478 kts | 17° |
| 2026-05-05 12:48 | 66.09645 | -5.12728 | 39105 ft | 478 kts | 17° |
| 2026-05-05 12:49 | 66.15905 | -5.07522 | 39104 ft | 478 kts | 17° |
| 2026-05-05 12:49 | 66.22166 | -5.02288 | 39099 ft | 478 kts | 17° |
| 2026-05-05 12:50 | 66.28483 | -4.96980 | 39096 ft | 478 kts | 17° |
| 2026-05-05 12:50 | 66.34750 | -4.91686 | 39095 ft | 478 kts | 17° |
| 2026-05-05 12:51 | 66.41028 | -4.86354 | 39080 ft | 478 kts | 17° |
| 2026-05-05 12:51 | 66.47269 | -4.81026 | 39014 ft | 478 kts | 17° |
| 2026-05-05 12:52 | 66.53561 | -4.75626 | 38967 ft | 478 kts | 17° |
| 2026-05-05 12:52 | 66.59818 | -4.70227 | 38974 ft | 477 kts | 17° |
| 2026-05-05 12:53 | 66.66080 | -4.64796 | 38972 ft | 477 kts | 17° |
| 2026-05-05 12:53 | 66.72319 | -4.59357 | 38963 ft | 478 kts | 17° |
| 2026-05-05 12:54 | 66.81690 | -4.51131 | 38956 ft | 478 kts | 17° |
| 2026-05-05 12:55 | 66.87965 | -4.45585 | 38954 ft | 478 kts | 17° |
| 2026-05-05 12:55 | 66.94209 | -4.40038 | 38953 ft | 478 kts | 17° |
| 2026-05-05 12:56 | 67.00448 | -4.34464 | 38951 ft | 478 kts | 18° |
| 2026-05-05 12:56 | 67.06722 | -4.28829 | 38949 ft | 477 kts | 18° |
| 2026-05-05 12:57 | 67.12960 | -4.23194 | 38948 ft | 477 kts | 18° |
| 2026-05-05 12:57 | 67.19205 | -4.17524 | 38932 ft | 478 kts | 18° |
| 2026-05-05 12:58 | 67.25457 | -4.11815 | 38914 ft | 479 kts | 18° |
| 2026-05-05 12:58 | 67.31789 | -4.06002 | 38895 ft | 482 kts | 18° |
| 2026-05-05 12:59 | 67.38063 | -4.00209 | 38876 ft | 484 kts | 18° |
| 2026-05-05 12:59 | 67.44431 | -3.94296 | 38873 ft | 486 kts | 18° |
| 2026-05-05 13:00 | 67.53947 | -3.85397 | 38871 ft | 488 kts | 18° |
| 2026-05-05 13:01 | 67.66681 | -3.73368 | 38869 ft | 488 kts | 18° |
| 2026-05-05 13:01 | 67.73055 | -3.67296 | 38867 ft | 488 kts | 18° |
| 2026-05-05 13:02 | 67.79391 | -3.61224 | 38867 ft | 488 kts | 18° |
| 2026-05-05 13:02 | 67.85754 | -3.55094 | 38864 ft | 488 kts | 18° |
| 2026-05-05 13:03 | 67.92149 | -3.48896 | 38863 ft | 488 kts | 19° |
| 2026-05-05 13:03 | 67.98486 | -3.42717 | 38862 ft | 488 kts | 18° |
| 2026-05-05 13:04 | 68.04837 | -3.36489 | 38861 ft | 488 kts | 19° |
| 2026-05-05 13:04 | 68.11155 | -3.30258 | 38859 ft | 488 kts | 19° |
| 2026-05-05 13:05 | 68.17502 | -3.23961 | 38858 ft | 488 kts | 19° |
| 2026-05-05 13:05 | 68.23820 | -3.17657 | 38857 ft | 487 kts | 19° |
| 2026-05-05 13:06 | 68.30165 | -3.11287 | 38860 ft | 487 kts | 19° |
| 2026-05-05 13:06 | 68.36489 | -3.04900 | 38869 ft | 486 kts | 19° |
| 2026-05-05 13:07 | 68.42792 | -2.98499 | 38873 ft | 487 kts | 19° |
| 2026-05-05 13:07 | 68.49102 | -2.92050 | 38872 ft | 487 kts | 19° |
| 2026-05-05 13:08 | 68.55428 | -2.85548 | 38871 ft | 487 kts | 20° |
| 2026-05-05 13:08 | 68.61735 | -2.79025 | 38870 ft | 487 kts | 20° |
| 2026-05-05 13:09 | 68.68042 | -2.72464 | 38870 ft | 486 kts | 20° |
| 2026-05-05 13:09 | 68.74330 | -2.65882 | 38872 ft | 486 kts | 20° |
| 2026-05-05 13:10 | 68.80634 | -2.59243 | 38873 ft | 486 kts | 20° |
| 2026-05-05 13:10 | 68.86901 | -2.52604 | 38872 ft | 486 kts | 20° |
| 2026-05-05 13:11 | 68.93213 | -2.45876 | 38871 ft | 486 kts | 20° |
| 2026-05-05 13:11 | 68.99483 | -2.39150 | 38871 ft | 486 kts | 20° |
| 2026-05-05 13:12 | 69.05785 | -2.32351 | 38871 ft | 486 kts | 20° |
| 2026-05-05 13:12 | 69.12042 | -2.25556 | 38873 ft | 486 kts | 20° |
| 2026-05-05 13:13 | 69.18299 | -2.18721 | 38874 ft | 486 kts | 21° |
| 2026-05-05 13:13 | 69.24589 | -2.11807 | 38874 ft | 485 kts | 21° |
| 2026-05-05 13:14 | 69.30828 | -2.04905 | 38873 ft | 485 kts | 21° |
| 2026-05-05 13:14 | 69.37090 | -1.97935 | 38873 ft | 485 kts | 21° |
| 2026-05-05 13:15 | 69.43309 | -1.90970 | 38872 ft | 485 kts | 21° |
| 2026-05-05 13:15 | 69.49580 | -1.83902 | 38871 ft | 484 kts | 21° |
| 2026-05-05 13:16 | 69.55799 | -1.76849 | 38870 ft | 484 kts | 21° |
| 2026-05-05 13:16 | 69.62006 | -1.69765 | 38868 ft | 483 kts | 21° |
| 2026-05-05 13:17 | 69.68220 | -1.62630 | 38865 ft | 483 kts | 21° |
| 2026-05-05 13:17 | 69.74425 | -1.55459 | 38865 ft | 482 kts | 21° |
| 2026-05-05 13:18 | 69.80637 | -1.48233 | 38857 ft | 482 kts | 21° |
| 2026-05-05 13:18 | 69.86826 | -1.40988 | 38841 ft | 482 kts | 21° |
| 2026-05-05 13:19 | 69.93004 | -1.33711 | 38831 ft | 482 kts | 22° |
| 2026-05-05 13:19 | 69.99174 | -1.26395 | 38832 ft | 482 kts | 22° |
| 2026-05-05 13:20 | 70.05371 | -1.19001 | 38831 ft | 482 kts | 22° |
| 2026-05-05 13:20 | 70.11558 | -1.11569 | 38829 ft | 482 kts | 22° |
| 2026-05-05 13:21 | 70.17751 | -1.04083 | 38830 ft | 482 kts | 22° |
| 2026-05-05 13:21 | 70.23905 | -0.96595 | 38836 ft | 481 kts | 22° |
| 2026-05-05 13:22 | 70.30077 | -0.89036 | 38865 ft | 481 kts | 22° |
| 2026-05-05 13:22 | 70.36217 | -0.81467 | 38931 ft | 481 kts | 22° |
| 2026-05-05 13:23 | 70.42355 | -0.73850 | 38957 ft | 482 kts | 22° |
| 2026-05-05 13:23 | 70.48508 | -0.66165 | 38943 ft | 482 kts | 22° |
| 2026-05-05 13:24 | 70.54662 | -0.58427 | 38937 ft | 481 kts | 22° |
| 2026-05-05 13:24 | 70.60847 | -0.50598 | 38941 ft | 481 kts | 22° |
| 2026-05-05 13:25 | 70.66959 | -0.42811 | 38943 ft | 481 kts | 22° |
| 2026-05-05 13:25 | 70.73102 | -0.34930 | 38945 ft | 480 kts | 23° |
| 2026-05-05 13:26 | 70.79224 | -0.27023 | 38947 ft | 480 kts | 23° |
| 2026-05-05 13:26 | 70.85355 | -0.19053 | 38949 ft | 480 kts | 23° |
| 2026-05-05 13:27 | 70.91455 | -0.11070 | 38951 ft | 480 kts | 23° |
| 2026-05-05 13:27 | 70.97543 | -0.03049 | 38953 ft | 480 kts | 23° |
| 2026-05-05 13:28 | 71.03737 | 0.04610 | 38955 ft | 480 kts | 20° |
| 2026-05-05 13:28 | 71.09931 | 0.11890 | 38958 ft | 480 kts | 20° |
| 2026-05-05 13:29 | 71.16143 | 0.19248 | 38959 ft | 480 kts | 20° |
| 2026-05-05 13:29 | 71.22369 | 0.26675 | 38964 ft | 480 kts | 21° |
| 2026-05-05 13:30 | 71.28552 | 0.34101 | 38968 ft | 481 kts | 21° |
| 2026-05-05 13:30 | 71.34774 | 0.41629 | 38969 ft | 481 kts | 21° |
| 2026-05-05 13:31 | 71.41003 | 0.49219 | 38972 ft | 481 kts | 21° |
| 2026-05-05 13:31 | 71.47191 | 0.56810 | 38974 ft | 481 kts | 21° |
| 2026-05-05 13:32 | 71.53404 | 0.64488 | 38976 ft | 481 kts | 21° |
| 2026-05-05 13:32 | 71.59612 | 0.72212 | 38978 ft | 481 kts | 22° |
| 2026-05-05 13:33 | 71.65804 | 0.79972 | 38981 ft | 481 kts | 22° |
| 2026-05-05 13:33 | 71.71976 | 0.87762 | 38983 ft | 480 kts | 22° |
| 2026-05-05 13:34 | 71.78148 | 0.95606 | 38986 ft | 480 kts | 22° |
| 2026-05-05 13:34 | 71.84325 | 1.03512 | 38988 ft | 480 kts | 22° |
| 2026-05-05 13:35 | 71.90523 | 1.11502 | 38990 ft | 480 kts | 22° |
| 2026-05-05 13:35 | 71.96671 | 1.19484 | 38993 ft | 480 kts | 22° |
| 2026-05-05 13:36 | 72.02844 | 1.27559 | 38995 ft | 480 kts | 22° |
| 2026-05-05 13:36 | 72.09029 | 1.35706 | 38998 ft | 480 kts | 22° |
| 2026-05-05 13:37 | 72.15184 | 1.43874 | 39000 ft | 480 kts | 22° |
| 2026-05-05 13:37 | 72.21314 | 1.52067 | 39003 ft | 481 kts | 22° |
| 2026-05-05 13:38 | 72.27499 | 1.60394 | 39005 ft | 481 kts | 22° |
| 2026-05-05 13:38 | 72.33656 | 1.68745 | 39007 ft | 481 kts | 23° |
| 2026-05-05 13:39 | 72.39796 | 1.77133 | 39010 ft | 481 kts | 23° |
| 2026-05-05 13:39 | 72.45950 | 1.85604 | 39012 ft | 481 kts | 23° |
| 2026-05-05 13:40 | 72.52073 | 1.94093 | 39011 ft | 481 kts | 23° |
| 2026-05-05 13:40 | 72.58236 | 2.02703 | 39006 ft | 481 kts | 23° |
| 2026-05-05 13:41 | 72.64342 | 2.11296 | 39006 ft | 480 kts | 23° |
| 2026-05-05 13:41 | 72.70480 | 2.19999 | 39009 ft | 480 kts | 23° |
| 2026-05-05 13:42 | 72.76601 | 2.28744 | 39010 ft | 480 kts | 23° |
| 2026-05-05 13:42 | 72.82719 | 2.37552 | 39011 ft | 480 kts | 23° |
| 2026-05-05 13:43 | 72.88870 | 2.46472 | 38989 ft | 481 kts | 23° |
| 2026-05-05 13:43 | 72.94994 | 2.55423 | 38954 ft | 481 kts | 23° |
| 2026-05-05 13:44 | 73.01087 | 2.64395 | 38942 ft | 480 kts | 23° |
| 2026-05-05 13:44 | 73.07209 | 2.73479 | 38947 ft | 480 kts | 24° |
| 2026-05-05 13:45 | 73.13311 | 2.82604 | 38951 ft | 480 kts | 24° |
| 2026-05-05 13:45 | 73.19423 | 2.91814 | 38954 ft | 481 kts | 24° |
| 2026-05-05 13:46 | 73.25524 | 3.01080 | 38957 ft | 481 kts | 24° |
| 2026-05-05 13:46 | 73.31660 | 3.10472 | 38961 ft | 481 kts | 24° |
| 2026-05-05 13:47 | 73.37730 | 3.19835 | 38964 ft | 482 kts | 24° |
| 2026-05-05 13:47 | 73.43848 | 3.29347 | 38967 ft | 482 kts | 24° |
| 2026-05-05 13:48 | 73.49929 | 3.38877 | 38971 ft | 482 kts | 24° |
| 2026-05-05 13:48 | 73.56019 | 3.48496 | 38974 ft | 482 kts | 24° |
| 2026-05-05 13:49 | 73.62133 | 3.58230 | 38977 ft | 482 kts | 24° |
| 2026-05-05 13:49 | 73.68210 | 3.67984 | 38981 ft | 483 kts | 25° |
| 2026-05-05 13:50 | 73.74320 | 3.77869 | 38984 ft | 483 kts | 25° |
| 2026-05-05 13:50 | 73.80415 | 3.87807 | 38988 ft | 483 kts | 25° |
| 2026-05-05 13:51 | 73.86518 | 3.97814 | 38991 ft | 483 kts | 25° |
| 2026-05-05 13:51 | 73.92606 | 4.07923 | 38994 ft | 483 kts | 26° |
| 2026-05-05 13:52 | 73.98086 | 4.21683 | 39001 ft | 483 kts | 43° |
| 2026-05-05 13:52 | 74.02106 | 4.40949 | 39004 ft | 484 kts | 61° |
| 2026-05-05 13:53 | 74.04281 | 4.63898 | 39007 ft | 486 kts | 78° |
| 2026-05-05 13:53 | 74.04388 | 4.88331 | 39010 ft | 489 kts | 97° |
| 2026-05-05 13:54 | 74.02397 | 5.11880 | 39012 ft | 492 kts | 115° |
| 2026-05-05 13:54 | 73.98501 | 5.32122 | 39015 ft | 495 kts | 132° |
| 2026-05-05 13:55 | 73.93049 | 5.47201 | 39014 ft | 498 kts | 150° |
| 2026-05-05 13:55 | 73.86602 | 5.56109 | 39010 ft | 500 kts | 161° |
| 2026-05-05 13:56 | 73.79987 | 5.63599 | 39006 ft | 499 kts | 156° |
| 2026-05-05 13:56 | 73.74092 | 5.75975 | 39005 ft | 496 kts | 140° |
| 2026-05-05 13:57 | 73.69371 | 5.93683 | 39002 ft | 493 kts | 124° |
| 2026-05-05 13:57 | 73.65537 | 6.13740 | 38999 ft | 493 kts | 122° |
| 2026-05-05 13:58 | 73.61690 | 6.33891 | 38997 ft | 493 kts | 122° |
| 2026-05-05 13:58 | 73.57823 | 6.54005 | 38996 ft | 493 kts | 122° |
| 2026-05-05 13:59 | 73.52005 | 6.83810 | 38994 ft | 493 kts | 123° |
| 2026-05-05 14:00 | 73.46178 | 7.13595 | 38992 ft | 493 kts | 123° |
| 2026-05-05 14:00 | 73.42305 | 7.33321 | 38990 ft | 493 kts | 123° |
| 2026-05-05 14:01 | 73.38418 | 7.53030 | 38989 ft | 493 kts | 123° |
| 2026-05-05 14:01 | 73.34520 | 7.72676 | 38987 ft | 493 kts | 124° |
| 2026-05-05 14:02 | 73.30610 | 7.92255 | 38961 ft | 493 kts | 124° |
| 2026-05-05 14:02 | 73.26711 | 8.11633 | 38928 ft | 493 kts | 123° |
| 2026-05-05 14:03 | 73.22756 | 8.31141 | 38912 ft | 493 kts | 123° |
| 2026-05-05 14:03 | 73.18819 | 8.50404 | 38901 ft | 493 kts | 123° |
| 2026-05-05 14:04 | 73.14862 | 8.69600 | 38896 ft | 493 kts | 124° |
| 2026-05-05 14:04 | 73.10886 | 8.88733 | 38893 ft | 493 kts | 124° |
| 2026-05-05 14:05 | 73.06897 | 9.07764 | 38890 ft | 493 kts | 124° |
| 2026-05-05 14:05 | 73.02896 | 9.26681 | 38888 ft | 493 kts | 124° |
| 2026-05-05 14:06 | 72.98849 | 9.45657 | 38884 ft | 493 kts | 124° |
| 2026-05-05 14:06 | 72.94788 | 9.64534 | 38881 ft | 496 kts | 124° |
| 2026-05-05 14:07 | 72.90706 | 9.83335 | 38878 ft | 497 kts | 126° |
| 2026-05-05 14:07 | 72.86580 | 10.02177 | 38876 ft | 497 kts | 126° |
| 2026-05-05 14:08 | 72.82449 | 10.20877 | 38873 ft | 497 kts | 126° |
| 2026-05-05 14:08 | 72.78303 | 10.39479 | 38870 ft | 497 kts | 126° |
| 2026-05-05 14:09 | 72.74145 | 10.57976 | 38874 ft | 497 kts | 126° |
| 2026-05-05 14:09 | 72.69949 | 10.76476 | 38880 ft | 497 kts | 126° |
| 2026-05-05 14:10 | 72.65731 | 10.94921 | 38878 ft | 497 kts | 126° |
| 2026-05-05 14:10 | 72.61509 | 11.13218 | 38876 ft | 496 kts | 126° |
| 2026-05-05 14:11 | 72.57298 | 11.31314 | 38870 ft | 495 kts | 126° |
| 2026-05-05 14:11 | 72.53077 | 11.49300 | 38864 ft | 494 kts | 126° |
| 2026-05-05 14:12 | 72.48841 | 11.67197 | 38860 ft | 494 kts | 127° |
| 2026-05-05 14:12 | 72.44585 | 11.85031 | 38856 ft | 494 kts | 127° |
| 2026-05-05 14:13 | 72.40325 | 12.02728 | 38853 ft | 494 kts | 127° |
| 2026-05-05 14:13 | 72.36028 | 12.20435 | 38850 ft | 494 kts | 127° |
| 2026-05-05 14:14 | 72.31749 | 12.37915 | 38825 ft | 494 kts | 127° |
| 2026-05-05 14:14 | 72.27417 | 12.55466 | 38798 ft | 494 kts | 127° |
| 2026-05-05 14:15 | 72.23086 | 12.72873 | 38792 ft | 494 kts | 128° |
| 2026-05-05 14:15 | 72.18742 | 12.90183 | 38790 ft | 494 kts | 128° |
| 2026-05-05 14:16 | 72.14385 | 13.07408 | 38786 ft | 494 kts | 128° |
| 2026-05-05 14:16 | 72.10032 | 13.24477 | 38783 ft | 494 kts | 128° |
| 2026-05-05 14:17 | 72.05636 | 13.41575 | 38775 ft | 494 kts | 128° |
| 2026-05-05 14:17 | 72.01246 | 13.58514 | 38765 ft | 494 kts | 128° |
| 2026-05-05 14:18 | 71.96828 | 13.75422 | 38762 ft | 494 kts | 129° |
| 2026-05-05 14:18 | 71.92374 | 13.92329 | 38759 ft | 494 kts | 129° |
| 2026-05-05 14:19 | 71.87918 | 14.09108 | 38742 ft | 494 kts | 129° |
| 2026-05-05 14:19 | 71.83477 | 14.25700 | 38724 ft | 494 kts | 129° |
| 2026-05-05 14:20 | 71.78988 | 14.42338 | 38720 ft | 493 kts | 129° |
| 2026-05-05 14:20 | 71.74485 | 14.58896 | 38718 ft | 493 kts | 129° |
| 2026-05-05 14:21 | 71.69988 | 14.75301 | 38715 ft | 493 kts | 130° |
| 2026-05-05 14:21 | 71.65447 | 14.91738 | 38712 ft | 494 kts | 130° |
| 2026-05-05 14:22 | 71.60917 | 15.08010 | 38709 ft | 494 kts | 130° |
| 2026-05-05 14:22 | 71.56357 | 15.24262 | 38707 ft | 494 kts | 131° |
| 2026-05-05 14:23 | 71.51791 | 15.40409 | 38703 ft | 495 kts | 131° |
| 2026-05-05 14:23 | 71.47197 | 15.56527 | 38700 ft | 495 kts | 131° |
| 2026-05-05 14:24 | 71.42622 | 15.72456 | 38695 ft | 495 kts | 132° |
| 2026-05-05 14:24 | 71.38002 | 15.88415 | 38690 ft | 495 kts | 132° |
| 2026-05-05 14:25 | 71.33372 | 16.04292 | 38685 ft | 494 kts | 132° |
| 2026-05-05 14:25 | 71.28738 | 16.20059 | 38680 ft | 494 kts | 132° |
| 2026-05-05 14:26 | 71.24074 | 16.35809 | 38675 ft | 494 kts | 132° |
| 2026-05-05 14:26 | 71.19422 | 16.51396 | 38670 ft | 494 kts | 132° |
| 2026-05-05 14:27 | 71.14752 | 16.66929 | 38671 ft | 494 kts | 133° |
| 2026-05-05 14:27 | 71.10066 | 16.82402 | 38382 ft | 494 kts | 133° |
| 2026-05-05 14:28 | 71.07726 | 16.90081 | 37790 ft | 489 kts | 133° |
| 2026-05-05 14:28 | 71.05445 | 16.97545 | 37276 ft | 485 kts | 133° |
| 2026-05-05 14:28 | 71.03136 | 17.05068 | 36714 ft | 481 kts | 133° |
| 2026-05-05 14:28 | 71.00851 | 17.12492 | 36123 ft | 479 kts | 133° |
| 2026-05-05 14:29 | 70.98586 | 17.19824 | 35534 ft | 476 kts | 133° |
| 2026-05-05 14:29 | 70.96292 | 17.27218 | 34916 ft | 474 kts | 133° |
| 2026-05-05 14:29 | 70.94059 | 17.34396 | 34302 ft | 472 kts | 133° |
| 2026-05-05 14:29 | 70.91788 | 17.41666 | 33672 ft | 469 kts | 133° |
| 2026-05-05 14:30 | 70.89543 | 17.48830 | 33063 ft | 466 kts | 133° |
| 2026-05-05 14:30 | 70.87290 | 17.55992 | 32441 ft | 463 kts | 133° |
| 2026-05-05 14:30 | 70.85097 | 17.62943 | 31828 ft | 460 kts | 133° |
| 2026-05-05 14:30 | 70.82893 | 17.69904 | 31225 ft | 457 kts | 134° |
| 2026-05-05 14:31 | 70.80711 | 17.76771 | 30694 ft | 454 kts | 134° |
| 2026-05-05 14:31 | 70.78532 | 17.83603 | 30061 ft | 451 kts | 134° |
| 2026-05-05 14:31 | 70.76350 | 17.90421 | 29542 ft | 454 kts | 134° |
| 2026-05-05 14:31 | 70.74160 | 17.97244 | 28980 ft | 455 kts | 134° |
| 2026-05-05 14:32 | 70.71945 | 18.04122 | 28296 ft | 453 kts | 134° |
| 2026-05-05 14:32 | 70.69768 | 18.10861 | 27610 ft | 450 kts | 134° |
| 2026-05-05 14:32 | 70.67616 | 18.17499 | 26936 ft | 446 kts | 134° |
| 2026-05-05 14:32 | 70.65443 | 18.24180 | 26354 ft | 438 kts | 134° |
| 2026-05-05 14:33 | 70.63369 | 18.30540 | 25797 ft | 428 kts | 134° |
| 2026-05-05 14:33 | 70.61309 | 18.36834 | 25122 ft | 420 kts | 134° |
| 2026-05-05 14:33 | 70.59257 | 18.43086 | 24373 ft | 414 kts | 134° |
| 2026-05-05 14:33 | 70.57282 | 18.49082 | 23620 ft | 407 kts | 134° |
| 2026-05-05 14:34 | 70.55104 | 18.54280 | 22793 ft | 401 kts | 149° |
| 2026-05-05 14:34 | 70.52547 | 18.57590 | 21882 ft | 396 kts | 161° |
| 2026-05-05 14:34 | 70.49949 | 18.60082 | 20965 ft | 391 kts | 161° |
| 2026-05-05 14:34 | 70.47384 | 18.62554 | 20087 ft | 386 kts | 161° |
| 2026-05-05 14:35 | 70.44892 | 18.64957 | 19405 ft | 375 kts | 161° |
| 2026-05-05 14:35 | 70.42457 | 18.67304 | 18781 ft | 363 kts | 162° |
| 2026-05-05 14:35 | 70.40104 | 18.69570 | 18164 ft | 354 kts | 162° |
| 2026-05-05 14:35 | 70.37798 | 18.71789 | 17556 ft | 345 kts | 162° |
| 2026-05-05 14:36 | 70.35543 | 18.73956 | 17047 ft | 335 kts | 162° |
| 2026-05-05 14:36 | 70.33382 | 18.76031 | 16557 ft | 327 kts | 162° |
| 2026-05-05 14:36 | 70.31238 | 18.78088 | 16058 ft | 319 kts | 162° |
| 2026-05-05 14:36 | 70.29158 | 18.80079 | 15565 ft | 313 kts | 162° |
| 2026-05-05 14:37 | 70.27123 | 18.82025 | 15076 ft | 308 kts | 162° |
| 2026-05-05 14:37 | 70.25118 | 18.83940 | 14677 ft | 301 kts | 162° |
| 2026-05-05 14:37 | 70.23163 | 18.85805 | 14307 ft | 293 kts | 162° |
| 2026-05-05 14:37 | 70.21229 | 18.87647 | 13934 ft | 287 kts | 162° |
| 2026-05-05 14:38 | 70.19348 | 18.89437 | 13560 ft | 281 kts | 162° |
| 2026-05-05 14:38 | 70.17524 | 18.91170 | 13189 ft | 277 kts | 162° |
| 2026-05-05 14:38 | 70.15707 | 18.92893 | 12819 ft | 273 kts | 162° |
| 2026-05-05 14:38 | 70.13899 | 18.94606 | 12436 ft | 270 kts | 162° |
| 2026-05-05 14:39 | 70.12133 | 18.96275 | 12114 ft | 264 kts | 163° |
| 2026-05-05 14:39 | 70.10422 | 18.97891 | 11865 ft | 257 kts | 163° |
| 2026-05-05 14:39 | 70.08697 | 18.99099 | 11494 ft | 254 kts | 178° |
| 2026-05-05 14:39 | 70.06986 | 18.98229 | 11104 ft | 252 kts | 203° |
| 2026-05-05 14:40 | 70.05411 | 18.95985 | 10738 ft | 251 kts | 207° |
| 2026-05-05 14:40 | 70.03860 | 18.93711 | 10378 ft | 251 kts | 207° |
| 2026-05-05 14:40 | 70.02305 | 18.91455 | 10018 ft | 250 kts | 206° |
| 2026-05-05 14:40 | 70.00739 | 18.89191 | 9657 ft | 250 kts | 206° |
| 2026-05-05 14:41 | 69.99194 | 18.86967 | 9281 ft | 250 kts | 206° |
| 2026-05-05 14:41 | 69.97612 | 18.84696 | 8891 ft | 251 kts | 206° |
| 2026-05-05 14:41 | 69.96054 | 18.82469 | 8508 ft | 251 kts | 205° |
| 2026-05-05 14:41 | 69.94488 | 18.80236 | 8122 ft | 251 kts | 205° |
| 2026-05-05 14:42 | 69.92921 | 18.78008 | 7752 ft | 251 kts | 205° |
| 2026-05-05 14:42 | 69.91363 | 18.75802 | 7392 ft | 250 kts | 205° |
| 2026-05-05 14:42 | 69.89797 | 18.73584 | 7022 ft | 249 kts | 205° |
| 2026-05-05 14:42 | 69.88236 | 18.71381 | 6641 ft | 249 kts | 205° |
| 2026-05-05 14:43 | 69.86693 | 18.69211 | 6287 ft | 248 kts | 205° |
| 2026-05-05 14:43 | 69.85122 | 18.67008 | 5927 ft | 247 kts | 205° |
| 2026-05-05 14:43 | 69.83579 | 18.64843 | 5599 ft | 245 kts | 205° |
| 2026-05-05 14:43 | 69.82063 | 18.62721 | 5348 ft | 239 kts | 205° |
| 2026-05-05 14:44 | 69.80587 | 18.60655 | 5096 ft | 234 kts | 205° |
| 2026-05-05 14:44 | 69.79150 | 18.58647 | 4964 ft | 224 kts | 205° |
| 2026-05-05 14:44 | 69.77811 | 18.56779 | 4982 ft | 204 kts | 204° |
| 2026-05-05 14:44 | 69.76550 | 18.55023 | 4991 ft | 204 kts | 204° |
| 2026-05-05 14:45 | 69.75263 | 18.53240 | 4963 ft | 203 kts | 204° |
| 2026-05-05 14:45 | 69.74000 | 18.51494 | 4943 ft | 200 kts | 204° |
| 2026-05-05 14:45 | 69.72731 | 18.49740 | 4944 ft | 202 kts | 204° |
| 2026-05-05 14:45 | 69.71465 | 18.47992 | 4962 ft | 203 kts | 204° |
| 2026-05-05 14:46 | 69.70196 | 18.46251 | 4959 ft | 203 kts | 204° |
| 2026-05-05 14:46 | 69.68881 | 18.44880 | 4972 ft | 195 kts | 190° |
| 2026-05-05 14:46 | 69.67573 | 18.44239 | 4993 ft | 185 kts | 187° |
| 2026-05-05 14:46 | 69.66322 | 18.44021 | 4957 ft | 180 kts | 168° |
| 2026-05-05 14:47 | 69.65250 | 18.45604 | 4950 ft | 169 kts | 131° |
| 2026-05-05 14:47 | 69.64574 | 18.48295 | 4856 ft | 159 kts | 118° |
| 2026-05-05 14:47 | 69.64028 | 18.50769 | 4693 ft | 139 kts | 117° |
| 2026-05-05 14:47 | 69.63521 | 18.53119 | 4510 ft | 138 kts | 117° |
| 2026-05-05 14:48 | 69.63022 | 18.55355 | 4294 ft | 132 kts | 117° |
| 2026-05-05 14:48 | 69.62519 | 18.57604 | 4127 ft | 133 kts | 118° |
| 2026-05-05 14:48 | 69.62028 | 18.59833 | 3941 ft | 133 kts | 116° |
| 2026-05-05 14:48 | 69.61534 | 18.62095 | 3772 ft | 133 kts | 117° |
| 2026-05-05 14:49 | 69.61031 | 18.64407 | 3555 ft | 138 kts | 117° |
| 2026-05-05 14:49 | 69.60522 | 18.66739 | 3391 ft | 136 kts | 117° |
| 2026-05-05 14:49 | 69.60020 | 18.69028 | 3229 ft | 136 kts | 118° |
| 2026-05-05 14:49 | 69.59516 | 18.71318 | 3032 ft | 137 kts | 117° |
| 2026-05-05 14:50 | 69.59115 | 18.73785 | 2845 ft | 134 kts | 104° |
| 2026-05-05 14:50 | 69.58947 | 18.76381 | 2585 ft | 134 kts | 90° |
| 2026-05-05 14:50 | 69.59011 | 18.79030 | 2334 ft | 131 kts | 77° |
| 2026-05-05 14:50 | 69.59281 | 18.81390 | 2163 ft | 121 kts | 64° |
| 2026-05-05 14:51 | 69.59705 | 18.83373 | 1993 ft | 115 kts | 53° |
| 2026-05-05 14:51 | 69.60234 | 18.85129 | 1719 ft | 121 kts | 43° |
| 2026-05-05 14:51 | 69.60915 | 18.86514 | 1568 ft | 117 kts | 29° |
| 2026-05-05 14:51 | 69.61665 | 18.87387 | 1396 ft | 118 kts | 17° |
| 2026-05-05 14:52 | 69.62479 | 18.87940 | 1181 ft | 122 kts | 14° |
| 2026-05-05 14:52 | 69.63314 | 18.88475 | 995 ft | 122 kts | 14° |
| 2026-05-05 14:52 | 69.64132 | 18.89012 | 827 ft | 121 kts | 14° |
| 2026-05-05 14:52 | 69.64947 | 18.89546 | 678 ft | 120 kts | 14° |
| 2026-05-05 14:53 | 69.65756 | 18.90113 | 484 ft | 121 kts | 14° |
| 2026-05-05 14:53 | 69.66575 | 18.90690 | 265 ft | 120 kts | 13° |
| 2026-05-05 14:53 | 69.67385 | 18.91253 | 27 ft | 117 kts | 13° |
| 2026-05-05 14:53 | 69.68063 | 18.91703 | -3 ft | 76 kts | 13° |
| 2026-05-05 14:54 | 69.68276 | 18.91836 | -4 ft | 19 kts | 355° |
| 2026-05-05 14:54 | 69.68310 | 18.91795 | -4 ft | 0 kts | 278° |
| 2026-05-05 14:54 | 69.68311 | 18.91769 | -2 ft | 1 kts | 277° |
| 2026-05-05 14:54 | 69.68318 | 18.91697 | -2 ft | 0 kts | 292° |
| 2026-05-05 14:55 | 69.68321 | 18.91679 | -2 ft | 1 kts | 297° |
| 2026-05-05 14:55 | 69.68330 | 18.91613 | -2 ft | 5 kts | 282° |
| 2026-05-05 14:55 | 69.68317 | 18.91495 | -1 ft | 8 kts | 213° |
| 2026-05-05 14:55 | 69.68245 | 18.91444 | -1 ft | 14 kts | 193° |
| 2026-05-05 14:56 | 69.68134 | 18.91367 | 0 ft | 18 kts | 193° |
| 2026-05-05 14:56 | 69.68105 | 18.91215 | 1 ft | 9 kts | 279° |
| 2026-05-05 14:56 | 69.68120 | 18.91008 | 2 ft | 12 kts | 282° |
| 2026-05-05 14:56 | 69.68125 | 18.90949 | 2 ft | 0 kts | 282° |
| 2026-05-05 15:17 | 69.68125 | 18.90948 | 2 ft | 0 kts | 282° |
| 2026-05-05 15:18 | 69.68125 | 18.90949 | 2 ft | 0 kts | 282° |
| 2026-05-05 15:18 | 69.68125 | 18.90948 | 2 ft | 0 kts | 282° |
| 2026-05-05 15:19 | 69.68121 | 18.90932 | 2 ft | 5 kts | 205° |
| 2026-05-05 15:19 | 69.68124 | 18.91060 | 1 ft | 5 kts | 105° |